createdAt,value
2019-01-25T00:01:34.495Z,137.30
2019-01-25T00:04:04.528Z,135.63
2019-01-25T00:06:32.559Z,136.37
2019-01-25T00:09:00.568Z,133.07
2019-01-25T00:11:28.895Z,148.20
2019-01-25T00:14:01.275Z,130.83
2019-01-25T00:16:29.558Z,153.47
2019-01-25T00:18:57.738Z,125.87
2019-01-25T00:21:33.855Z,149.40
2019-01-25T00:24:01.550Z,132.97
2019-01-25T00:26:29.633Z,151.10
2019-01-25T00:28:57.508Z,134.47
2019-01-25T00:31:25.007Z,156.40
2019-01-25T00:33:53.571Z,152.50
2019-01-25T00:36:21.371Z,151.70
2019-01-25T00:38:49.234Z,154.10
2019-01-25T00:41:16.694Z,158.43
2019-01-25T00:43:44.525Z,137.20
2019-01-25T00:46:12.737Z,152.83
2019-01-25T00:48:40.999Z,155.93
2019-01-25T00:51:09.988Z,152.53
2019-01-25T00:53:37.458Z,152.70
2019-01-25T00:56:06.344Z,141.17
2019-01-25T00:58:33.826Z,154.73
2019-01-25T01:01:02.359Z,127.23
2019-01-25T01:03:30.184Z,154.20
2019-01-25T01:05:58.038Z,148.20
2019-01-25T01:08:26.460Z,141.93
2019-01-25T01:10:54.546Z,148.57
2019-01-25T01:13:22.459Z,145.50
2019-01-25T01:15:50.575Z,151.90
2019-01-25T01:18:18.190Z,144.53
2019-01-25T01:20:51.584Z,147.23
2019-01-25T01:23:19.136Z,138.87
2019-01-25T01:25:52.919Z,142.77
2019-01-25T01:28:21.270Z,129.00
2019-01-25T01:30:49.587Z,141.83
2019-01-25T01:33:17.504Z,144.27
2019-01-25T01:35:45.749Z,147.27
2019-01-25T01:38:13.675Z,145.87
2019-01-25T01:40:41.774Z,157.30
2019-01-25T01:43:09.883Z,148.03
2019-01-25T01:45:37.938Z,152.93
2019-01-25T01:48:05.782Z,149.87
2019-01-25T01:50:33.684Z,154.27
2019-01-25T01:53:07.599Z,146.80
2019-01-25T01:55:35.421Z,134.87
2019-01-25T01:58:03.666Z,137.87
2019-01-25T02:00:31.806Z,136.83
2019-01-25T02:02:59.449Z,148.37
2019-01-25T02:05:26.923Z,146.90
2019-01-25T02:07:54.915Z,150.47
2019-01-25T02:10:29.199Z,149.10
2019-01-25T02:12:54.011Z,159.13
2019-01-25T02:15:22.774Z,143.47
2019-01-25T02:17:50.526Z,145.50
2019-01-25T02:20:44.766Z,162.57
2019-01-25T02:23:12.670Z,142.90
2019-01-25T02:25:41.706Z,144.03
2019-01-25T02:28:09.553Z,160.80
2019-01-25T02:30:37.074Z,140.70
2019-01-25T02:33:06.856Z,146.13
2019-01-25T02:35:34.691Z,137.57
2019-01-25T02:38:02.874Z,144.17
2019-01-25T02:40:38.381Z,158.57
2019-01-25T02:43:04.473Z,141.77
2019-01-25T02:45:41.016Z,140.83
2019-01-25T02:48:08.504Z,141.40
2019-01-25T02:50:36.106Z,162.27
2019-01-25T02:53:14.672Z,148.00
2019-01-25T02:55:42.196Z,153.70
2019-01-25T02:58:10.749Z,150.63
2019-01-25T03:00:38.746Z,154.77
2019-01-25T03:03:06.700Z,145.30
2019-01-25T03:05:34.481Z,137.30
2019-01-25T03:08:02.537Z,162.73
2019-01-25T03:10:30.065Z,150.77
2019-01-25T03:12:57.574Z,148.37
2019-01-25T03:15:29.946Z,138.53
2019-01-25T03:17:57.482Z,131.63
2019-01-25T03:20:25.622Z,150.53
2019-01-25T03:22:53.154Z,143.53
2019-01-25T03:25:25.686Z,149.53
2019-01-25T03:27:53.589Z,133.73
2019-01-25T03:30:22.148Z,144.17
2019-01-25T03:32:50.374Z,133.83
2019-01-25T03:35:19.391Z,146.07
2019-01-25T03:37:47.231Z,136.23
2019-01-25T03:40:17.647Z,138.00
2019-01-25T03:42:45.490Z,133.63
2019-01-25T03:45:14.104Z,131.93
2019-01-25T03:47:41.603Z,132.87
2019-01-25T03:50:13.139Z,150.50
2019-01-25T03:52:41.612Z,152.80
2019-01-25T03:55:10.622Z,144.13
2019-01-25T03:57:52.987Z,134.23
2019-01-25T04:00:22.682Z,142.50
2019-01-25T04:03:03.507Z,136.17
2019-01-25T04:05:31.393Z,144.43
2019-01-25T04:07:59.365Z,125.93
2019-01-25T04:10:27.873Z,132.77
2019-01-25T04:12:55.722Z,140.73
2019-01-25T04:15:28.504Z,127.27
2019-01-25T04:17:56.649Z,131.37
2019-01-25T04:20:33.225Z,130.87
2019-01-25T04:23:00.715Z,123.43
2019-01-25T04:25:29.271Z,136.30
2019-01-25T04:28:05.243Z,122.63
2019-01-25T04:30:33.258Z,127.83
2019-01-25T04:33:00.787Z,121.13
2019-01-25T04:35:28.663Z,119.90
2019-01-25T04:37:56.734Z,121.50
2019-01-25T04:40:32.671Z,128.97
2019-01-25T04:43:00.114Z,129.73
2019-01-25T04:45:28.043Z,128.20
2019-01-25T04:48:02.277Z,122.27
2019-01-25T04:50:29.780Z,124.23
2019-01-25T04:52:58.093Z,131.23
2019-01-25T04:55:33.905Z,124.40
2019-01-25T04:58:12.688Z,122.23
2019-01-25T05:00:41.577Z,120.03
2019-01-25T05:03:09.497Z,130.47
2019-01-25T05:05:37.926Z,133.73
2019-01-25T05:08:12.172Z,117.23
2019-01-25T05:10:40.133Z,117.17
2019-01-25T05:13:07.692Z,116.00
2019-01-25T05:15:43.274Z,111.47
2019-01-25T05:18:11.530Z,125.17
2019-01-25T05:20:39.573Z,121.67
2019-01-25T05:23:07.575Z,127.23
2019-01-25T05:25:35.511Z,117.13
2019-01-25T05:28:13.829Z,117.37
2019-01-25T05:30:50.054Z,115.00
2019-01-25T05:33:17.609Z,120.57
2019-01-25T05:35:45.538Z,113.27
2019-01-25T05:38:13.409Z,115.07
2019-01-25T05:40:41.334Z,116.90
2019-01-25T05:43:09.152Z,102.80
2019-01-25T05:45:42.142Z,103.33
2019-01-25T05:48:27.555Z,84.97
2019-01-25T05:51:00.348Z,93.67
2019-01-25T05:53:30.442Z,87.90
2019-01-25T05:55:58.789Z,87.87
2019-01-25T05:58:39.606Z,84.43
2019-01-25T06:01:07.445Z,85.30
2019-01-25T06:03:39.886Z,85.80
2019-01-25T06:06:07.471Z,79.20
2019-01-25T06:08:43.432Z,82.37
2019-01-25T06:11:08.790Z,87.67
2019-01-25T06:13:37.308Z,83.60
2019-01-25T06:16:05.455Z,79.17
2019-01-25T06:18:33.377Z,82.27
2019-01-25T06:21:00.948Z,92.93
2019-01-25T06:23:29.212Z,74.80
2019-01-25T06:25:57.863Z,82.77
2019-01-25T06:28:25.899Z,83.97
2019-01-25T06:30:53.791Z,92.23
2019-01-25T06:33:22.768Z,87.77
2019-01-25T06:35:50.615Z,82.07
2019-01-25T06:38:25.991Z,82.90
2019-01-25T06:40:53.836Z,71.87
2019-01-25T06:43:21.501Z,76.20
2019-01-25T06:45:49.964Z,62.63
2019-01-25T06:48:18.705Z,62.90
2019-01-25T06:50:49.393Z,45.43
2019-01-25T06:53:17.703Z,60.30
2019-01-25T06:55:45.974Z,62.07
2019-01-25T06:58:51.421Z,62.67
2019-01-25T07:01:25.982Z,63.03
2019-01-25T07:03:54.027Z,63.57
2019-01-25T07:06:25.991Z,68.80
2019-01-25T07:08:53.760Z,63.30
2019-01-25T07:11:21.865Z,64.23
2019-01-25T07:13:49.390Z,64.13
2019-01-25T07:16:16.916Z,69.43
2019-01-25T07:18:44.473Z,67.97
2019-01-25T07:21:12.315Z,66.10
2019-01-25T07:23:41.559Z,71.63
2019-01-25T07:26:11.417Z,68.23
2019-01-25T07:28:39.294Z,74.93
2019-01-25T07:31:13.082Z,63.80
2019-01-25T07:33:40.719Z,67.83
2019-01-25T07:36:08.331Z,70.40
2019-01-25T07:38:46.202Z,77.10
2019-01-25T07:41:14.372Z,66.83
2019-01-25T07:43:42.305Z,79.63
2019-01-25T07:46:10.148Z,71.07
2019-01-25T07:48:38.554Z,73.73
2019-01-25T07:51:06.487Z,81.50
2019-01-25T07:53:34.674Z,84.13
2019-01-25T07:56:02.295Z,73.20
2019-01-25T07:58:29.843Z,84.50
2019-01-25T08:00:57.795Z,88.40
2019-01-25T08:03:25.684Z,92.93
2019-01-25T08:05:53.175Z,89.90
2019-01-25T08:08:21.360Z,81.90
2019-01-25T08:10:49.452Z,84.03
2019-01-25T08:13:17.445Z,80.67
2019-01-25T08:15:45.145Z,79.67
2019-01-25T08:18:14.358Z,80.47
2019-01-25T08:20:42.895Z,78.87
2019-01-25T08:23:10.407Z,85.17
2019-01-25T08:25:38.201Z,85.30
2019-01-25T08:28:05.885Z,85.47
2019-01-25T08:30:33.354Z,85.93
2019-01-25T08:33:01.247Z,84.57
2019-01-25T08:35:29.046Z,81.00
2019-01-25T08:37:56.603Z,83.87
2019-01-25T08:40:24.114Z,91.03
2019-01-25T08:42:52.354Z,90.10
2019-01-25T08:45:19.959Z,94.40
2019-01-25T08:47:48.228Z,87.87
2019-01-25T08:50:18.652Z,97.67
2019-01-25T08:52:46.743Z,90.23
2019-01-25T08:55:14.572Z,96.80
2019-01-25T08:57:42.548Z,91.77
2019-01-25T09:00:16.177Z,109.43
2019-01-25T09:02:44.089Z,103.47
2019-01-25T09:05:12.314Z,94.87
2019-01-25T09:07:40.200Z,93.07
2019-01-25T09:10:10.931Z,97.87
2019-01-25T09:12:39.121Z,95.00
2019-01-25T09:15:09.193Z,96.50
2019-01-25T09:17:36.781Z,89.53
2019-01-25T09:20:06.063Z,94.73
2019-01-25T09:22:34.238Z,97.10
2019-01-25T09:25:01.725Z,93.07
2019-01-25T09:27:29.622Z,85.37
2019-01-25T09:29:58.058Z,87.77
2019-01-25T09:32:25.674Z,91.27
2019-01-25T09:34:53.466Z,85.13
2019-01-25T09:37:21.115Z,95.23
2019-01-25T09:39:48.611Z,86.30
2019-01-25T09:42:16.628Z,89.57
2019-01-25T09:44:44.430Z,82.10
2019-01-25T09:47:12.297Z,93.23
2019-01-25T09:49:39.815Z,89.33
2019-01-25T09:52:07.732Z,90.57
2019-01-25T09:54:39.117Z,87.20
2019-01-25T09:57:06.657Z,77.30
2019-01-25T09:59:34.893Z,84.17
2019-01-25T10:02:12.045Z,84.83
2019-01-25T10:04:39.935Z,83.67
2019-01-25T10:07:09.447Z,82.97
2019-01-25T10:09:37.466Z,77.83
2019-01-25T10:12:05.005Z,86.33
2019-01-25T10:14:32.546Z,90.33
2019-01-25T10:17:00.126Z,95.17
2019-01-25T10:19:27.774Z,98.47
2019-01-25T10:21:55.665Z,89.67
2019-01-25T10:24:23.231Z,88.63
2019-01-25T10:26:50.899Z,102.53
2019-01-25T10:29:18.859Z,105.10
2019-01-25T10:31:46.451Z,85.37
2019-01-25T10:34:14.295Z,86.90
2019-01-25T10:36:41.785Z,94.37
2019-01-25T10:39:10.122Z,96.60
2019-01-25T10:41:37.619Z,91.47
2019-01-25T10:44:07.028Z,84.50
2019-01-25T10:46:35.377Z,89.50
2019-01-25T10:49:03.401Z,89.60
2019-01-25T10:51:31.294Z,82.40
2019-01-25T10:53:58.875Z,80.67
2019-01-25T10:56:26.422Z,71.87
2019-01-25T10:58:53.938Z,74.27
2019-01-25T11:01:21.623Z,77.30
2019-01-25T11:03:49.162Z,77.23
2019-01-25T11:06:16.651Z,69.40
2019-01-25T11:08:44.566Z,77.37
2019-01-25T11:11:12.838Z,52.20
2019-01-25T11:13:40.708Z,58.43
2019-01-25T11:16:11.922Z,56.60
2019-01-25T11:18:38.254Z,59.57
2019-01-25T11:21:06.816Z,63.77
2019-01-25T11:23:34.700Z,64.17
2019-01-25T11:26:02.398Z,62.17
2019-01-25T11:28:49.660Z,64.40
2019-01-25T11:31:17.280Z,60.80
2019-01-25T11:33:45.518Z,65.83
2019-01-25T11:36:13.003Z,60.97
2019-01-25T11:38:40.940Z,60.80
2019-01-25T11:41:10.745Z,62.30
2019-01-25T11:43:38.697Z,57.33
2019-01-25T11:46:06.617Z,60.60
2019-01-25T11:48:34.658Z,57.90
2019-01-25T11:51:02.114Z,59.80
2019-01-25T11:53:29.644Z,56.63
2019-01-25T11:55:57.245Z,50.90
2019-01-25T11:58:25.486Z,55.60
2019-01-25T12:00:52.996Z,54.73
2019-01-25T12:03:20.572Z,54.03
2019-01-25T12:05:48.227Z,56.17
2019-01-25T12:08:15.962Z,56.90
2019-01-25T12:10:43.804Z,65.07
2019-01-25T12:13:16.024Z,64.03
2019-01-25T12:15:40.796Z,63.30
2019-01-25T12:18:09.637Z,64.50
2019-01-25T12:20:37.446Z,66.93
2019-01-25T12:23:05.439Z,66.40
2019-01-25T12:25:33.007Z,66.40
2019-01-25T12:28:05.293Z,63.47
2019-01-25T12:30:38.171Z,66.70
2019-01-25T12:33:07.172Z,67.40
2019-01-25T12:35:45.352Z,67.73
2019-01-25T12:38:17.663Z,61.33
2019-01-25T12:40:45.133Z,65.27
2019-01-25T12:43:12.619Z,71.27
2019-01-25T12:45:43.271Z,60.10
2019-01-25T12:48:11.166Z,69.13
2019-01-25T12:51:09.775Z,65.30
2019-01-25T12:53:38.652Z,65.27
2019-01-25T12:56:06.327Z,63.87
2019-01-25T12:58:34.394Z,62.43
2019-01-25T13:01:02.364Z,68.20
2019-01-25T13:03:29.894Z,63.13
2019-01-25T13:05:58.149Z,61.60
2019-01-25T13:08:26.211Z,70.50
2019-01-25T13:10:54.150Z,71.97
2019-01-25T13:13:22.283Z,69.63
2019-01-25T13:15:50.217Z,66.30
2019-01-25T13:18:17.702Z,69.47
2019-01-25T13:20:47.819Z,71.47
2019-01-25T13:23:16.712Z,73.00
2019-01-25T13:25:47.241Z,71.70
2019-01-25T13:28:14.316Z,76.57
2019-01-25T13:30:41.906Z,81.87
2019-01-25T13:33:16.088Z,79.67
2019-01-25T13:35:43.592Z,89.70
2019-01-25T13:38:11.562Z,90.90
2019-01-25T13:40:45.091Z,91.63
2019-01-25T13:43:12.639Z,84.67
2019-01-25T13:45:40.581Z,92.93
2019-01-25T13:48:08.100Z,98.47
2019-01-25T13:50:36.196Z,95.27
2019-01-25T13:53:04.232Z,96.80
2019-01-25T13:55:32.468Z,101.30
2019-01-25T13:58:00.490Z,99.83
2019-01-25T14:00:32.644Z,90.93
2019-01-25T14:03:01.130Z,93.80
2019-01-25T14:05:29.176Z,102.67
2019-01-25T14:07:59.253Z,106.73
2019-01-25T14:10:50.085Z,91.07
2019-01-25T14:13:17.818Z,94.37
2019-01-25T14:15:45.336Z,102.80
2019-01-25T14:18:12.835Z,99.53
2019-01-25T14:20:40.392Z,100.13
2019-01-25T14:23:08.120Z,102.07
2019-01-25T14:25:35.761Z,94.03
2019-01-25T14:28:03.566Z,99.60
2019-01-25T14:30:36.602Z,101.43
2019-01-25T14:33:04.504Z,99.03
2019-01-25T14:35:32.688Z,88.67
2019-01-25T14:38:00.710Z,98.67
2019-01-25T14:40:28.730Z,104.93
2019-01-25T14:42:56.377Z,100.10
2019-01-25T14:45:23.974Z,103.00
2019-01-25T14:47:51.477Z,96.37
2019-01-25T14:50:21.490Z,101.70
2019-01-25T14:52:49.392Z,100.70
2019-01-25T14:55:16.951Z,104.70
2019-01-25T14:57:45.195Z,106.60
2019-01-25T15:00:13.347Z,100.07
2019-01-25T15:02:41.936Z,102.47
2019-01-25T15:05:12.243Z,90.43
2019-01-25T15:07:39.999Z,89.93
2019-01-25T15:10:14.167Z,105.33
2019-01-25T15:12:41.835Z,95.07
2019-01-25T15:15:10.967Z,100.23
2019-01-25T15:17:39.425Z,101.93
2019-01-25T15:20:10.127Z,95.37
2019-01-25T15:22:37.640Z,99.70
2019-01-25T15:25:05.357Z,102.13
2019-01-25T15:27:33.238Z,104.77
2019-01-25T15:30:00.987Z,101.40
2019-01-25T15:32:28.759Z,90.90
2019-01-25T15:34:56.395Z,91.67
2019-01-25T15:37:24.006Z,102.33
2019-01-25T15:39:51.928Z,106.60
2019-01-25T15:42:19.852Z,92.53
2019-01-25T15:44:47.410Z,102.07
2019-01-25T15:47:16.790Z,108.23
2019-01-25T15:49:45.260Z,102.53
2019-01-25T15:52:13.541Z,104.03
2019-01-25T15:54:41.424Z,100.17
2019-01-25T15:57:08.962Z,99.70
2019-01-25T15:59:37.718Z,105.80
2019-01-25T16:02:05.578Z,104.23
2019-01-25T16:04:35.024Z,105.50
2019-01-25T16:07:02.738Z,107.23
2019-01-25T16:09:30.367Z,100.00
2019-01-25T16:11:58.672Z,101.70
2019-01-25T16:14:26.149Z,109.70
2019-01-25T16:16:54.692Z,109.33
2019-01-25T16:19:22.178Z,107.00
2019-01-25T16:21:49.719Z,100.57
2019-01-25T16:24:17.277Z,107.80
2019-01-25T16:26:45.038Z,106.40
2019-01-25T16:29:12.776Z,96.87
2019-01-25T16:31:53.731Z,97.03
2019-01-25T16:34:21.987Z,108.43
2019-01-25T16:37:20.021Z,106.03
2019-01-25T16:39:47.955Z,95.77
2019-01-25T16:42:24.699Z,101.37
2019-01-25T16:44:54.738Z,102.67
2019-01-25T16:48:02.020Z,95.33
2019-01-25T16:50:29.913Z,106.63
2019-01-25T16:55:50.953Z,100.37
2019-01-25T16:58:21.075Z,92.87
2019-01-25T17:00:49.769Z,99.67
2019-01-25T17:03:18.210Z,93.83
2019-01-25T17:05:47.566Z,99.43
2019-01-25T17:08:16.529Z,90.77
2019-01-25T17:10:45.884Z,100.53
2019-01-25T17:13:15.046Z,83.87
2019-01-25T17:15:46.693Z,85.60
2019-01-25T17:18:15.245Z,84.90
2019-01-25T17:20:51.106Z,96.17
2019-01-25T17:23:20.382Z,93.80
2019-01-25T17:25:49.079Z,92.57
2019-01-25T17:28:17.752Z,109.37
2019-01-25T17:30:46.048Z,97.63
2019-01-25T17:33:15.955Z,95.80
2019-01-25T17:35:44.940Z,99.73
2019-01-25T17:38:13.185Z,103.30
2019-01-25T17:40:46.765Z,94.60
2019-01-25T17:45:49.533Z,94.83
2019-01-25T17:48:18.416Z,95.47
2019-01-25T17:50:46.474Z,96.70
2019-01-25T17:53:14.566Z,96.43
2019-01-25T17:55:42.372Z,96.53
2019-01-25T17:58:10.364Z,100.10
2019-01-25T18:00:45.138Z,93.73
2019-01-25T18:03:14.769Z,95.63
2019-01-25T18:05:44.677Z,90.90
2019-01-25T18:08:19.317Z,90.77
2019-01-25T18:10:52.786Z,89.73
2019-01-25T18:13:21.875Z,94.67
2019-01-25T18:15:50.051Z,98.60
2019-01-25T18:18:17.816Z,94.47
2019-01-25T18:20:45.893Z,89.23
2019-01-25T18:23:16.284Z,89.27
2019-01-25T18:26:07.269Z,95.67
2019-01-25T18:28:39.060Z,76.10
2019-01-25T18:31:10.736Z,86.47
2019-01-25T18:33:40.009Z,80.50
2019-01-25T18:36:08.786Z,88.10
2019-01-25T18:38:38.145Z,84.60
2019-01-25T18:41:06.139Z,76.40
2019-01-25T18:43:34.060Z,85.23
2019-01-25T18:46:01.822Z,76.83
2019-01-25T18:48:30.548Z,76.37
2019-01-25T18:50:59.464Z,82.17
2019-01-25T18:53:32.388Z,78.10
2019-01-25T18:56:00.542Z,80.43
2019-01-25T18:58:28.452Z,69.33
2019-01-25T19:00:57.691Z,80.13
2019-01-25T19:03:27.525Z,73.43
2019-01-25T19:05:58.454Z,78.33
2019-01-25T19:08:26.853Z,85.73
2019-01-25T19:10:54.847Z,81.53
2019-01-25T19:13:22.762Z,88.07
2019-01-25T19:15:53.251Z,76.83
2019-01-25T19:18:22.091Z,74.60
2019-01-25T19:20:49.769Z,72.63
2019-01-25T19:23:18.167Z,81.47
2019-01-25T19:25:46.043Z,68.90
2019-01-25T19:28:14.138Z,80.07
2019-01-25T19:30:43.454Z,72.57
2019-01-25T19:33:12.399Z,80.67
2019-01-25T19:35:40.769Z,74.13
2019-01-25T19:38:10.015Z,75.17
2019-01-25T19:40:37.756Z,81.97
2019-01-25T19:43:06.869Z,81.10
2019-01-25T19:57:28.795Z,85.17
2019-01-25T19:59:56.500Z,79.83
2019-01-25T20:02:24.340Z,66.13
2019-01-25T20:04:51.884Z,69.17
2019-01-25T20:07:19.726Z,69.47
2019-01-25T20:09:48.621Z,68.90
2019-01-25T20:12:16.515Z,67.57
2019-01-25T20:14:44.612Z,76.90
2019-01-25T20:17:12.193Z,70.00
2019-01-25T20:19:40.108Z,71.23
2019-01-25T20:22:08.055Z,68.30
2019-01-25T20:24:35.931Z,68.13
2019-01-25T20:27:04.302Z,62.53
2019-01-25T20:29:32.368Z,54.10
2019-01-25T20:32:00.552Z,69.93
2019-01-25T20:34:28.248Z,59.77
2019-01-25T20:36:55.832Z,56.80
2019-01-25T20:39:23.805Z,58.60
2019-01-25T20:41:53.109Z,45.30
2019-01-25T20:44:23.179Z,53.43
2019-01-25T20:46:50.870Z,58.10
2019-01-25T20:49:18.534Z,57.20
2019-01-25T20:51:46.074Z,45.97
2019-01-25T20:54:13.587Z,39.53
2019-01-25T20:56:41.634Z,47.60
2019-01-25T20:59:09.893Z,44.47
2019-01-25T21:01:41.936Z,43.73
2019-01-25T21:04:19.828Z,45.80
2019-01-25T21:06:47.614Z,45.47
2019-01-25T21:09:16.598Z,52.53
2019-01-25T21:11:47.508Z,45.43
2019-01-25T21:14:29.075Z,48.17
2019-01-25T21:16:57.651Z,48.27
2019-01-25T21:19:25.456Z,49.87
2019-01-25T21:21:54.141Z,50.50
2019-01-25T21:24:22.018Z,53.40
2019-01-25T21:26:50.769Z,53.77
2019-01-25T21:29:19.188Z,51.83
2019-01-25T21:31:47.561Z,54.33
2019-01-25T21:34:15.750Z,59.10
2019-01-25T21:36:43.320Z,51.00
2019-01-25T21:39:11.178Z,51.30
2019-01-25T21:41:38.967Z,53.27
2019-01-25T21:44:06.993Z,58.80
2019-01-25T21:46:39.970Z,42.67
2019-01-25T21:49:04.724Z,49.37
2019-01-25T21:51:33.131Z,55.73
2019-01-25T21:54:00.891Z,49.13
2019-01-25T21:56:28.547Z,45.93
2019-01-25T21:58:56.715Z,50.20
2019-01-25T22:01:24.768Z,44.37
2019-01-25T22:03:52.974Z,43.37
2019-01-25T22:06:20.628Z,51.80
2019-01-25T22:08:52.456Z,32.40
2019-01-25T22:11:20.018Z,44.37
2019-01-25T22:13:52.807Z,25.73
2019-01-25T22:16:17.758Z,49.07
2019-01-25T22:18:49.326Z,44.57
2019-01-25T22:21:16.956Z,43.40
2019-01-25T23:44:28.541Z,44.10
2019-01-25T23:46:56.775Z,42.83
